sensor_id;sensor_type;location;lat;lon;timestamp;pressure;altitude;pressure_sealevel;temperature;humidity
4814;BME280;15375;48.540;9.268;2022-07-29T00:00:58;97189.16;;;20.34;100.00
4814;BME280;15375;48.540;9.268;2022-07-29T00:03:24;97169.44;;;20.12;100.00
4814;BME280;15375;48.540;9.268;2022-07-29T00:05:49;97181.34;;;19.98;100.00
4814;BME280;15375;48.540;9.268;2022-07-29T00:08:15;97153.56;;;19.72;100.00
4814;BME280;15375;48.540;9.268;2022-07-29T00:10:41;97150.00;;;19.51;100.00
4814;BME280;15375;48.540;9.268;2022-07-29T00:13:07;97164.19;;;19.73;100.00
4814;BME280;15375;48.540;9.268;2022-07-29T00:15:32;97145.34;;;19.78;100.00
4814;BME280;15375;48.540;9.268;2022-07-29T00:17:58;97144.13;;;19.79;100.00
4814;BME280;15375;48.540;9.268;2022-07-29T00:20:23;97150.69;;;19.81;100.00
4814;BME280;15375;48.540;9.268;2022-07-29T00:22:48;97154.56;;;19.89;100.00
4814;BME280;15375;48.540;9.268;2022-07-29T00:25:14;97140.31;;;19.76;100.00
4814;BME280;15375;48.540;9.268;2022-07-29T00:27:39;97145.84;;;19.76;100.00
4814;BME280;15375;48.540;9.268;2022-07-29T00:30:05;97132.47;;;19.74;100.00
4814;BME280;15375;48.540;9.268;2022-07-29T00:32:31;97145.34;;;19.78;100.00
4814;BME280;15375;48.540;9.268;2022-07-29T00:34:56;97140.38;;;19.82;100.00
4814;BME280;15375;48.540;9.268;2022-07-29T00:37:40;97132.34;;;19.84;100.00
4814;BME280;15375;48.540;9.268;2022-07-29T00:40:06;97144.47;;;19.86;100.00
4814;BME280;15375;48.540;9.268;2022-07-29T00:42:48;97147.59;;;19.94;100.00
4814;BME280;15375;48.540;9.268;2022-07-29T00:45:15;97145.50;;;19.89;100.00
4814;BME280;15375;48.540;9.268;2022-07-29T00:47:41;97149.69;;;19.84;100.00
4814;BME280;15375;48.540;9.268;2022-07-29T00:50:09;97146.31;;;19.95;100.00
4814;BME280;15375;48.540;9.268;2022-07-29T00:52:36;97138.63;;;19.84;100.00
4814;BME280;15375;48.540;9.268;2022-07-29T00:55:07;97139.47;;;19.90;100.00
4814;BME280;15375;48.540;9.268;2022-07-29T00:57:34;97143.56;;;19.95;100.00
4814;BME280;15375;48.540;9.268;2022-07-29T00:59:59;97124.16;;;19.74;100.00
4814;BME280;15375;48.540;9.268;2022-07-29T01:02:25;97116.81;;;19.71;100.00
4814;BME280;15375;48.540;9.268;2022-07-29T01:04:50;97108.88;;;19.59;100.00
4814;BME280;15375;48.540;9.268;2022-07-29T01:07:17;97120.75;;;19.45;100.00
4814;BME280;15375;48.540;9.268;2022-07-29T01:09:44;97122.78;;;19.64;100.00
4814;BME280;15375;48.540;9.268;2022-07-29T01:12:11;97128.72;;;19.57;100.00
4814;BME280;15375;48.540;9.268;2022-07-29T01:14:38;97112.25;;;19.34;100.00
4814;BME280;15375;48.540;9.268;2022-07-29T01:17:26;97123.78;;;19.47;100.00
4814;BME280;15375;48.540;9.268;2022-07-29T01:32:15;97125.41;;;19.53;100.00
4814;BME280;15375;48.540;9.268;2022-07-29T01:34:21;97118.69;;;19.60;100.00
4814;BME280;15375;48.540;9.268;2022-07-29T01:36:54;97097.00;;;19.73;100.00
4814;BME280;15375;48.540;9.268;2022-07-29T01:39:29;97111.25;;;19.86;100.00
4814;BME280;15375;48.540;9.268;2022-07-29T01:47:40;97102.09;;;19.60;100.00
4814;BME280;15375;48.540;9.268;2022-07-29T01:50:09;97122.28;;;19.31;100.00
4814;BME280;15375;48.540;9.268;2022-07-29T01:52:55;97124.16;;;19.54;100.00
4814;BME280;15375;48.540;9.268;2022-07-29T01:55:25;97098.91;;;19.47;100.00
4814;BME280;15375;48.540;9.268;2022-07-29T01:57:52;97110.66;;;19.27;100.00
4814;BME280;15375;48.540;9.268;2022-07-29T02:00:18;97110.59;;;19.07;100.00
4814;BME280;15375;48.540;9.268;2022-07-29T02:02:45;97115.56;;;18.88;100.00
4814;BME280;15375;48.540;9.268;2022-07-29T02:05:14;97107.06;;;19.06;100.00
4814;BME280;15375;48.540;9.268;2022-07-29T02:07:42;97106.03;;;19.04;100.00
4814;BME280;15375;48.540;9.268;2022-07-29T02:10:09;97102.41;;;19.13;100.00
4814;BME280;15375;48.540;9.268;2022-07-29T02:12:36;97096.41;;;18.99;100.00
4814;BME280;15375;48.540;9.268;2022-07-29T02:15:04;97111.00;;;19.00;100.00
4814;BME280;15375;48.540;9.268;2022-07-29T02:17:35;97108.91;;;18.80;100.00
4814;BME280;15375;48.540;9.268;2022-07-29T02:20:04;97099.28;;;18.76;100.00
4814;BME280;15375;48.540;9.268;2022-07-29T02:22:33;97104.53;;;18.74;100.00
4814;BME280;15375;48.540;9.268;2022-07-29T02:25:00;97094.91;;;18.55;100.00
4814;BME280;15375;48.540;9.268;2022-07-29T02:27:26;97093.97;;;18.72;100.00
4814;BME280;15375;48.540;9.268;2022-07-29T02:29:54;97083.00;;;18.78;100.00
4814;BME280;15375;48.540;9.268;2022-07-29T02:32:22;97100.91;;;19.46;100.00
4814;BME280;15375;48.540;9.268;2022-07-29T02:34:50;97110.38;;;19.40;100.00
4814;BME280;15375;48.540;9.268;2022-07-29T02:37:17;97093.44;;;19.18;100.00
4814;BME280;15375;48.540;9.268;2022-07-29T02:39:44;97091.91;;;19.02;100.00
4814;BME280;15375;48.540;9.268;2022-07-29T02:42:13;97107.56;;;18.90;100.00
4814;BME280;15375;48.540;9.268;2022-07-29T02:44:40;97101.38;;;18.81;100.00
4814;BME280;15375;48.540;9.268;2022-07-29T02:47:30;97096.50;;;18.76;100.00
4814;BME280;15375;48.540;9.268;2022-07-29T02:50:03;97102.72;;;18.71;100.00
4814;BME280;15375;48.540;9.268;2022-07-29T02:52:40;97100.53;;;18.60;100.00
4814;BME280;15375;48.540;9.268;2022-07-29T02:57:44;97091.28;;;18.78;100.00
4814;BME280;15375;48.540;9.268;2022-07-29T03:00:11;97090.44;;;18.72;100.00
4814;BME280;15375;48.540;9.268;2022-07-29T03:02:40;97096.22;;;18.74;100.00
4814;BME280;15375;48.540;9.268;2022-07-29T03:05:09;97092.91;;;18.70;100.00
4814;BME280;15375;48.540;9.268;2022-07-29T03:07:37;97091.88;;;18.67;100.00
4814;BME280;15375;48.540;9.268;2022-07-29T03:10:04;97102.53;;;18.74;100.00
4814;BME280;15375;48.540;9.268;2022-07-29T03:12:31;97106.69;;;18.99;100.00
4814;BME280;15375;48.540;9.268;2022-07-29T03:14:58;97101.56;;;18.92;100.00
4814;BME280;15375;48.540;9.268;2022-07-29T03:17:24;97104.91;;;18.81;100.00
4814;BME280;15375;48.540;9.268;2022-07-29T03:19:50;97089.94;;;18.59;100.00
4814;BME280;15375;48.540;9.268;2022-07-29T03:22:16;97098.97;;;18.44;100.00
4814;BME280;15375;48.540;9.268;2022-07-29T03:24:42;97098.56;;;18.22;100.00
4814;BME280;15375;48.540;9.268;2022-07-29T03:27:07;97091.94;;;18.05;100.00
4814;BME280;15375;48.540;9.268;2022-07-29T03:29:32;97091.00;;;18.08;100.00
4814;BME280;15375;48.540;9.268;2022-07-29T03:31:58;97102.44;;;18.16;100.00
4814;BME280;15375;48.540;9.268;2022-07-29T03:34:23;97096.16;;;18.15;100.00
4814;BME280;15375;48.540;9.268;2022-07-29T03:36:49;97103.59;;;18.09;100.00
4814;BME280;15375;48.540;9.268;2022-07-29T03:39:18;97092.91;;;18.02;100.00
4814;BME280;15375;48.540;9.268;2022-07-29T03:41:47;97108.88;;;17.98;100.00
4814;BME280;15375;48.540;9.268;2022-07-29T03:44:15;97100.03;;;17.94;100.00
4814;BME280;15375;48.540;9.268;2022-07-29T03:46:43;97102.59;;;17.98;100.00
4814;BME280;15375;48.540;9.268;2022-07-29T03:49:10;97105.41;;;18.12;100.00
4814;BME280;15375;48.540;9.268;2022-07-29T03:51:37;97125.13;;;18.20;100.00
4814;BME280;15375;48.540;9.268;2022-07-29T03:54:03;97101.09;;;18.11;100.00
4814;BME280;15375;48.540;9.268;2022-07-29T03:56:32;97105.28;;;18.07;100.00
4814;BME280;15375;48.540;9.268;2022-07-29T03:59:01;97104.88;;;17.99;100.00
4814;BME280;15375;48.540;9.268;2022-07-29T04:01:27;97119.44;;;18.00;100.00
4814;BME280;15375;48.540;9.268;2022-07-29T04:03:53;97111.88;;;17.85;100.00
4814;BME280;15375;48.540;9.268;2022-07-29T04:06:18;97118.41;;;17.97;100.00
4814;BME280;15375;48.540;9.268;2022-07-29T04:08:44;97124.31;;;18.05;100.00
4814;BME280;15375;48.540;9.268;2022-07-29T04:11:09;97114.41;;;18.13;100.00
4814;BME280;15375;48.540;9.268;2022-07-29T04:13:35;97113.09;;;18.23;100.00
4814;BME280;15375;48.540;9.268;2022-07-29T04:16:00;97111.63;;;18.36;100.00
4814;BME280;15375;48.540;9.268;2022-07-29T04:18:26;97124.66;;;18.36;100.00
4814;BME280;15375;48.540;9.268;2022-07-29T04:20:51;97121.44;;;18.37;100.00
4814;BME280;15375;48.540;9.268;2022-07-29T04:23:16;97117.91;;;18.37;100.00
4814;BME280;15375;48.540;9.268;2022-07-29T04:25:43;97134.72;;;18.63;100.00
4814;BME280;15375;48.540;9.268;2022-07-29T04:28:09;97126.25;;;18.66;100.00
4814;BME280;15375;48.540;9.268;2022-07-29T04:30:36;97144.56;;;18.93;100.00
4814;BME280;15375;48.540;9.268;2022-07-29T04:33:03;97122.72;;;18.95;100.00
4814;BME280;15375;48.540;9.268;2022-07-29T04:35:30;97133.84;;;19.15;100.00
4814;BME280;15375;48.540;9.268;2022-07-29T04:37:56;97130.88;;;19.33;100.00
4814;BME280;15375;48.540;9.268;2022-07-29T04:40:21;97134.13;;;19.66;100.00
4814;BME280;15375;48.540;9.268;2022-07-29T04:42:47;97140.72;;;19.89;100.00
4814;BME280;15375;48.540;9.268;2022-07-29T04:45:13;97150.63;;;20.16;100.00
4814;BME280;15375;48.540;9.268;2022-07-29T04:47:38;97115.75;;;20.04;100.00
4814;BME280;15375;48.540;9.268;2022-07-29T04:50:04;97140.59;;;20.18;100.00
4814;BME280;15375;48.540;9.268;2022-07-29T04:52:32;97130.22;;;20.13;100.00
4814;BME280;15375;48.540;9.268;2022-07-29T04:54:57;97122.09;;;20.10;100.00
4814;BME280;15375;48.540;9.268;2022-07-29T04:57:22;97149.03;;;20.09;100.00
4814;BME280;15375;48.540;9.268;2022-07-29T04:59:48;97151.94;;;20.20;100.00
4814;BME280;15375;48.540;9.268;2022-07-29T05:02:14;97154.78;;;19.86;100.00
4814;BME280;15375;48.540;9.268;2022-07-29T05:04:39;97148.72;;;19.67;100.00
4814;BME280;15375;48.540;9.268;2022-07-29T05:07:05;97126.97;;;19.40;100.00
4814;BME280;15375;48.540;9.268;2022-07-29T05:09:30;97145.03;;;19.55;100.00
4814;BME280;15375;48.540;9.268;2022-07-29T05:11:57;97150.75;;;20.07;100.00
4814;BME280;15375;48.540;9.268;2022-07-29T05:14:23;97153.66;;;20.18;100.00
4814;BME280;15375;48.540;9.268;2022-07-29T05:16:48;97144.84;;;20.34;100.00
4814;BME280;15375;48.540;9.268;2022-07-29T05:19:16;97159.50;;;20.66;100.00
4814;BME280;15375;48.540;9.268;2022-07-29T05:21:41;97152.50;;;20.70;100.00
4814;BME280;15375;48.540;9.268;2022-07-29T05:24:07;97149.94;;;20.92;99.09
4814;BME280;15375;48.540;9.268;2022-07-29T05:26:33;97162.38;;;21.28;97.05
4814;BME280;15375;48.540;9.268;2022-07-29T05:28:58;97156.84;;;21.71;93.31
4814;BME280;15375;48.540;9.268;2022-07-29T05:31:24;97157.00;;;21.87;92.36
4814;BME280;15375;48.540;9.268;2022-07-29T05:33:49;97146.91;;;21.95;91.70
4814;BME280;15375;48.540;9.268;2022-07-29T05:36:14;97148.91;;;22.43;87.12
4814;BME280;15375;48.540;9.268;2022-07-29T05:38:40;97158.34;;;22.08;89.78
4814;BME280;15375;48.540;9.268;2022-07-29T05:41:05;97167.06;;;22.44;89.27
4814;BME280;15375;48.540;9.268;2022-07-29T05:43:31;97165.97;;;23.06;87.09
4814;BME280;15375;48.540;9.268;2022-07-29T05:45:57;97157.69;;;24.35;78.20
4814;BME280;15375;48.540;9.268;2022-07-29T05:48:22;97168.84;;;25.82;70.18
4814;BME280;15375;48.540;9.268;2022-07-29T05:50:48;97176.56;;;26.99;65.30
4814;BME280;15375;48.540;9.268;2022-07-29T05:53:13;97170.72;;;27.79;60.45
4814;BME280;15375;48.540;9.268;2022-07-29T05:55:39;97180.69;;;28.19;59.70
4814;BME280;15375;48.540;9.268;2022-07-29T05:58:04;97173.31;;;29.36;56.23
4814;BME280;15375;48.540;9.268;2022-07-29T06:00:29;97172.94;;;29.81;53.88
4814;BME280;15375;48.540;9.268;2022-07-29T06:02:55;97193.94;;;29.05;55.52
4814;BME280;15375;48.540;9.268;2022-07-29T06:05:20;97178.00;;;29.21;55.15
4814;BME280;15375;48.540;9.268;2022-07-29T06:07:46;97186.38;;;29.75;55.22
4814;BME280;15375;48.540;9.268;2022-07-29T06:10:12;97183.13;;;31.50;50.23
4814;BME280;15375;48.540;9.268;2022-07-29T06:12:37;97175.63;;;32.05;48.39
4814;BME280;15375;48.540;9.268;2022-07-29T06:15:03;97197.75;;;31.41;49.10
4814;BME280;15375;48.540;9.268;2022-07-29T06:17:30;97191.81;;;30.22;52.19
4814;BME280;15375;48.540;9.268;2022-07-29T06:19:55;97177.84;;;29.81;53.10
4814;BME280;15375;48.540;9.268;2022-07-29T06:22:20;97192.91;;;29.91;55.78
4814;BME280;15375;48.540;9.268;2022-07-29T06:24:46;97192.44;;;28.31;58.42
4814;BME280;15375;48.540;9.268;2022-07-29T06:27:11;97172.19;;;26.66;63.58
4814;BME280;15375;48.540;9.268;2022-07-29T06:29:36;97187.09;;;26.13;68.05
4814;BME280;15375;48.540;9.268;2022-07-29T06:32:02;97174.13;;;26.34;65.77
4814;BME280;15375;48.540;9.268;2022-07-29T06:34:27;97160.84;;;26.40;67.39
4814;BME280;15375;48.540;9.268;2022-07-29T06:36:53;97179.91;;;27.48;65.64
4814;BME280;15375;48.540;9.268;2022-07-29T06:39:19;97167.28;;;28.25;60.97
4814;BME280;15375;48.540;9.268;2022-07-29T06:41:48;97186.97;;;29.19;57.87
4814;BME280;15375;48.540;9.268;2022-07-29T06:44:14;97187.41;;;30.06;53.71
4814;BME280;15375;48.540;9.268;2022-07-29T06:46:40;97175.78;;;30.73;52.82
4814;BME280;15375;48.540;9.268;2022-07-29T06:49:06;97194.22;;;32.24;47.84
4814;BME280;15375;48.540;9.268;2022-07-29T06:51:32;97191.56;;;32.88;47.63
4814;BME280;15375;48.540;9.268;2022-07-29T06:53:58;97182.34;;;33.60;46.75
4814;BME280;15375;48.540;9.268;2022-07-29T06:56:24;97205.25;;;33.39;46.41
4814;BME280;15375;48.540;9.268;2022-07-29T06:58:50;97196.28;;;32.23;48.92
4814;BME280;15375;48.540;9.268;2022-07-29T07:01:15;97205.16;;;31.74;50.47
4814;BME280;15375;48.540;9.268;2022-07-29T07:03:41;97192.41;;;30.56;54.51
4814;BME280;15375;48.540;9.268;2022-07-29T07:06:07;97186.31;;;29.67;56.33
4814;BME280;15375;48.540;9.268;2022-07-29T07:08:32;97191.00;;;28.77;60.17
4814;BME280;15375;48.540;9.268;2022-07-29T07:10:58;97192.09;;;29.07;60.04
4814;BME280;15375;48.540;9.268;2022-07-29T07:13:23;97193.44;;;28.93;61.87
4814;BME280;15375;48.540;9.268;2022-07-29T07:15:49;97175.81;;;28.93;62.16
4814;BME280;15375;48.540;9.268;2022-07-29T07:18:16;97196.59;;;29.10;61.70
4814;BME280;15375;48.540;9.268;2022-07-29T07:20:42;97206.56;;;29.12;60.19
4814;BME280;15375;48.540;9.268;2022-07-29T07:23:08;97160.03;;;27.91;61.45
4814;BME280;15375;48.540;9.268;2022-07-29T07:25:34;97186.31;;;27.61;63.72
4814;BME280;15375;48.540;9.268;2022-07-29T07:27:59;97180.50;;;26.72;66.96
4814;BME280;15375;48.540;9.268;2022-07-29T07:30:25;97186.53;;;26.38;66.41
4814;BME280;15375;48.540;9.268;2022-07-29T07:32:51;97206.66;;;25.59;71.16
4814;BME280;15375;48.540;9.268;2022-07-29T07:35:16;97203.78;;;26.18;71.43
4814;BME280;15375;48.540;9.268;2022-07-29T07:37:42;97195.41;;;26.18;71.01
4814;BME280;15375;48.540;9.268;2022-07-29T07:40:09;97185.19;;;26.63;65.92
4814;BME280;15375;48.540;9.268;2022-07-29T07:42:35;97199.06;;;26.93;63.53
4814;BME280;15375;48.540;9.268;2022-07-29T07:45:00;97194.34;;;27.52;64.69
4814;BME280;15375;48.540;9.268;2022-07-29T07:47:26;97174.25;;;27.79;60.04
4814;BME280;15375;48.540;9.268;2022-07-29T07:49:52;97194.59;;;28.38;61.54
4814;BME280;15375;48.540;9.268;2022-07-29T07:52:19;97188.44;;;27.55;61.21
4814;BME280;15375;48.540;9.268;2022-07-29T07:54:45;97197.88;;;27.84;61.31
4814;BME280;15375;48.540;9.268;2022-07-29T07:57:11;97177.19;;;28.00;60.38
4814;BME280;15375;48.540;9.268;2022-07-29T07:59:37;97186.28;;;28.06;59.77
4814;BME280;15375;48.540;9.268;2022-07-29T08:02:03;97205.91;;;28.59;56.81
4814;BME280;15375;48.540;9.268;2022-07-29T08:04:29;97193.28;;;28.65;56.86
4814;BME280;15375;48.540;9.268;2022-07-29T08:06:55;97188.75;;;28.10;59.64
4814;BME280;15375;48.540;9.268;2022-07-29T08:09:21;97192.53;;;28.52;59.62
4814;BME280;15375;48.540;9.268;2022-07-29T08:11:47;97190.81;;;28.35;57.10
4814;BME280;15375;48.540;9.268;2022-07-29T08:14:12;97194.59;;;28.64;56.90
4814;BME280;15375;48.540;9.268;2022-07-29T08:16:39;97188.88;;;28.30;57.88
4814;BME280;15375;48.540;9.268;2022-07-29T08:19:05;97200.25;;;27.93;61.91
4814;BME280;15375;48.540;9.268;2022-07-29T08:21:30;97205.28;;;28.26;58.73
4814;BME280;15375;48.540;9.268;2022-07-29T08:23:56;97198.56;;;28.56;58.75
4814;BME280;15375;48.540;9.268;2022-07-29T08:26:42;97189.34;;;28.94;55.64
4814;BME280;15375;48.540;9.268;2022-07-29T08:29:07;97196.19;;;28.73;58.43
4814;BME280;15375;48.540;9.268;2022-07-29T08:31:33;97200.41;;;28.53;55.72
4814;BME280;15375;48.540;9.268;2022-07-29T08:33:58;97199.53;;;28.71;58.22
4814;BME280;15375;48.540;9.268;2022-07-29T08:36:25;97195.97;;;29.38;56.13
4814;BME280;15375;48.540;9.268;2022-07-29T08:38:51;97189.97;;;29.76;52.09
4814;BME280;15375;48.540;9.268;2022-07-29T08:41:18;97197.16;;;29.84;52.52
4814;BME280;15375;48.540;9.268;2022-07-29T08:43:44;97205.81;;;30.14;53.59
4814;BME280;15375;48.540;9.268;2022-07-29T08:46:09;97217.94;;;29.40;54.62
4814;BME280;15375;48.540;9.268;2022-07-29T08:48:35;97206.84;;;28.87;55.17
4814;BME280;15375;48.540;9.268;2022-07-29T08:51:01;97214.31;;;28.85;57.09
4814;BME280;15375;48.540;9.268;2022-07-29T08:53:28;97204.34;;;28.97;55.46
4814;BME280;15375;48.540;9.268;2022-07-29T08:55:54;97211.88;;;29.36;54.26
4814;BME280;15375;48.540;9.268;2022-07-29T08:58:20;97213.63;;;30.01;53.08
4814;BME280;15375;48.540;9.268;2022-07-29T09:00:50;97206.75;;;29.89;53.05
4814;BME280;15375;48.540;9.268;2022-07-29T09:03:20;97226.41;;;30.09;52.41
4814;BME280;15375;48.540;9.268;2022-07-29T09:05:48;97214.50;;;29.75;53.62
4814;BME280;15375;48.540;9.268;2022-07-29T09:08:14;97220.63;;;29.45;51.76
4814;BME280;15375;48.540;9.268;2022-07-29T09:10:40;97229.78;;;30.08;49.77
4814;BME280;15375;48.540;9.268;2022-07-29T09:13:05;97226.16;;;30.49;49.67
4814;BME280;15375;48.540;9.268;2022-07-29T09:15:31;97211.19;;;30.05;50.26
4814;BME280;15375;48.540;9.268;2022-07-29T09:17:57;97199.31;;;29.99;49.22
4814;BME280;15375;48.540;9.268;2022-07-29T09:20:24;97227.41;;;30.19;51.28
4814;BME280;15375;48.540;9.268;2022-07-29T09:22:51;97215.03;;;29.73;51.10
4814;BME280;15375;48.540;9.268;2022-07-29T09:28:15;97221.56;;;29.89;50.53
4814;BME280;15375;48.540;9.268;2022-07-29T09:30:56;97213.28;;;29.63;49.80
4814;BME280;15375;48.540;9.268;2022-07-29T09:33:24;97205.75;;;29.58;50.06
4814;BME280;15375;48.540;9.268;2022-07-29T09:36:00;97201.03;;;27.94;51.26
4814;BME280;15375;48.540;9.268;2022-07-29T09:38:27;97211.94;;;28.10;51.89
4814;BME280;15375;48.540;9.268;2022-07-29T09:40:58;97213.63;;;27.87;55.32
4814;BME280;15375;48.540;9.268;2022-07-29T09:43:23;97198.75;;;27.92;51.71
4814;BME280;15375;48.540;9.268;2022-07-29T09:45:49;97196.19;;;27.94;51.45
4814;BME280;15375;48.540;9.268;2022-07-29T09:48:19;97206.28;;;27.97;51.25
4814;BME280;15375;48.540;9.268;2022-07-29T09:50:46;97218.31;;;28.50;52.72
4814;BME280;15375;48.540;9.268;2022-07-29T09:53:34;97210.31;;;28.80;54.01
4814;BME280;15375;48.540;9.268;2022-07-29T09:56:02;97201.69;;;29.12;50.87
4814;BME280;15375;48.540;9.268;2022-07-29T09:58:27;97200.22;;;28.64;50.03
4814;BME280;15375;48.540;9.268;2022-07-29T10:00:54;97196.63;;;28.51;50.68
4814;BME280;15375;48.540;9.268;2022-07-29T10:03:20;97185.97;;;28.23;51.58
4814;BME280;15375;48.540;9.268;2022-07-29T10:05:46;97192.25;;;28.89;49.82
4814;BME280;15375;48.540;9.268;2022-07-29T10:08:12;97199.50;;;29.18;52.75
4814;BME280;15375;48.540;9.268;2022-07-29T10:10:40;97177.13;;;29.46;50.64
4814;BME280;15375;48.540;9.268;2022-07-29T10:13:13;97190.94;;;29.78;49.81
4814;BME280;15375;48.540;9.268;2022-07-29T10:15:41;97190.78;;;29.84;51.99
4814;BME280;15375;48.540;9.268;2022-07-29T10:18:10;97202.03;;;29.84;50.77
4814;BME280;15375;48.540;9.268;2022-07-29T10:20:37;97199.69;;;29.54;50.26
4814;BME280;15375;48.540;9.268;2022-07-29T10:23:02;97178.97;;;29.23;48.67
4814;BME280;15375;48.540;9.268;2022-07-29T10:25:28;97192.22;;;29.02;50.73
4814;BME280;15375;48.540;9.268;2022-07-29T10:27:54;97183.00;;;28.68;52.68
4814;BME280;15375;48.540;9.268;2022-07-29T10:30:22;97157.03;;;28.54;55.63
4814;BME280;15375;48.540;9.268;2022-07-29T10:38:20;97191.34;;;29.07;49.05
4814;BME280;15375;48.540;9.268;2022-07-29T10:41:01;97195.41;;;28.85;49.40
4814;BME280;15375;48.540;9.268;2022-07-29T10:44:14;97180.91;;;28.21;49.96
4814;BME280;15375;48.540;9.268;2022-07-29T10:46:40;97178.81;;;28.74;50.08
4814;BME280;15375;48.540;9.268;2022-07-29T10:49:27;97179.50;;;28.88;49.47
4814;BME280;15375;48.540;9.268;2022-07-29T10:52:04;97178.72;;;28.67;49.73
4814;BME280;15375;48.540;9.268;2022-07-29T10:59:44;97144.81;;;29.32;51.18
4814;BME280;15375;48.540;9.268;2022-07-29T11:07:23;97142.16;;;28.33;48.22
4814;BME280;15375;48.540;9.268;2022-07-29T11:10:24;97166.06;;;29.07;51.81
4814;BME280;15375;48.540;9.268;2022-07-29T11:12:50;97154.69;;;28.92;53.70
4814;BME280;15375;48.540;9.268;2022-07-29T11:15:21;97164.00;;;28.74;58.76
4814;BME280;15375;48.540;9.268;2022-07-29T11:20:39;97169.41;;;28.85;52.10
4814;BME280;15375;48.540;9.268;2022-07-29T11:23:27;97156.47;;;29.02;52.49
4814;BME280;15375;48.540;9.268;2022-07-29T11:29:12;97144.69;;;29.66;51.59
4814;BME280;15375;48.540;9.268;2022-07-29T11:31:42;97153.78;;;30.28;50.00
4814;BME280;15375;48.540;9.268;2022-07-29T11:44:59;97182.19;;;28.07;54.95
4814;BME280;15375;48.540;9.268;2022-07-29T11:47:35;97192.06;;;26.63;58.11
4814;BME280;15375;48.540;9.268;2022-07-29T11:50:03;97182.72;;;25.63;62.33
4814;BME280;15375;48.540;9.268;2022-07-29T11:52:38;97198.81;;;25.57;60.97
4814;BME280;15375;48.540;9.268;2022-07-29T11:55:09;97212.94;;;25.29;65.09
4814;BME280;15375;48.540;9.268;2022-07-29T11:57:35;97199.19;;;25.02;66.54
4814;BME280;15375;48.540;9.268;2022-07-29T12:00:05;97210.31;;;26.02;64.73
4814;BME280;15375;48.540;9.268;2022-07-29T12:02:40;97204.03;;;25.66;61.13
4814;BME280;15375;48.540;9.268;2022-07-29T12:05:07;97211.56;;;25.47;60.85
4814;BME280;15375;48.540;9.268;2022-07-29T12:07:33;97183.66;;;25.47;59.71
4814;BME280;15375;48.540;9.268;2022-07-29T12:10:00;97219.78;;;25.93;58.51
4814;BME280;15375;48.540;9.268;2022-07-29T12:12:26;97199.66;;;26.25;56.07
4814;BME280;15375;48.540;9.268;2022-07-29T12:14:51;97196.09;;;25.46;58.04
4814;BME280;15375;48.540;9.268;2022-07-29T12:19:55;97215.88;;;24.55;61.76
4814;BME280;15375;48.540;9.268;2022-07-29T12:22:29;97206.69;;;24.71;61.29
4814;BME280;15375;48.540;9.268;2022-07-29T12:24:55;97217.56;;;24.75;61.00
4814;BME280;15375;48.540;9.268;2022-07-29T12:27:21;97196.91;;;24.48;61.59
4814;BME280;15375;48.540;9.268;2022-07-29T12:30:01;97211.59;;;24.54;61.81
4814;BME280;15375;48.540;9.268;2022-07-29T12:32:45;97209.53;;;24.60;60.21
4814;BME280;15375;48.540;9.268;2022-07-29T12:35:15;97208.47;;;24.74;65.04
4814;BME280;15375;48.540;9.268;2022-07-29T12:37:43;97204.53;;;24.42;65.56
4814;BME280;15375;48.540;9.268;2022-07-29T12:40:12;97211.13;;;24.45;66.20
4814;BME280;15375;48.540;9.268;2022-07-29T12:42:38;97216.44;;;24.48;71.00
4814;BME280;15375;48.540;9.268;2022-07-29T12:45:04;97219.25;;;24.37;71.37
4814;BME280;15375;48.540;9.268;2022-07-29T12:47:30;97220.84;;;24.16;68.79
4814;BME280;15375;48.540;9.268;2022-07-29T12:50:14;97249.97;;;24.15;69.44
4814;BME280;15375;48.540;9.268;2022-07-29T12:52:43;97239.63;;;23.55;70.91
4814;BME280;15375;48.540;9.268;2022-07-29T12:55:09;97223.91;;;23.24;71.71
4814;BME280;15375;48.540;9.268;2022-07-29T12:57:45;97236.88;;;23.38;71.96
4814;BME280;15375;48.540;9.268;2022-07-29T13:00:12;97235.84;;;23.52;69.52
4814;BME280;15375;48.540;9.268;2022-07-29T13:02:39;97234.06;;;23.66;68.43
4814;BME280;15375;48.540;9.268;2022-07-29T13:05:07;97223.69;;;23.77;68.45
4814;BME280;15375;48.540;9.268;2022-07-29T13:07:37;97223.41;;;23.92;66.50
4814;BME280;15375;48.540;9.268;2022-07-29T13:10:20;97233.25;;;24.15;66.04
4814;BME280;15375;48.540;9.268;2022-07-29T13:13:13;97230.44;;;24.32;64.74
4814;BME280;15375;48.540;9.268;2022-07-29T13:15:41;97215.75;;;24.20;65.89
4814;BME280;15375;48.540;9.268;2022-07-29T13:20:52;97205.66;;;24.06;68.02
4814;BME280;15375;48.540;9.268;2022-07-29T13:23:17;97213.75;;;24.15;69.88
4814;BME280;15375;48.540;9.268;2022-07-29T13:25:43;97195.25;;;24.23;67.65
4814;BME280;15375;48.540;9.268;2022-07-29T13:28:08;97200.63;;;23.88;70.94
4814;BME280;15375;48.540;9.268;2022-07-29T13:30:34;97199.91;;;23.76;71.36
4814;BME280;15375;48.540;9.268;2022-07-29T13:33:00;97206.69;;;23.92;72.67
4814;BME280;15375;48.540;9.268;2022-07-29T13:35:25;97203.41;;;23.77;75.13
4814;BME280;15375;48.540;9.268;2022-07-29T13:37:50;97222.88;;;24.04;76.00
4814;BME280;15375;48.540;9.268;2022-07-29T13:40:16;97261.38;;;23.95;80.16
4814;BME280;15375;48.540;9.268;2022-07-29T13:42:42;97264.94;;;23.62;76.82
4814;BME280;15375;48.540;9.268;2022-07-29T13:45:09;97272.78;;;23.47;78.49
4814;BME280;15375;48.540;9.268;2022-07-29T13:47:35;97272.59;;;22.69;97.23
4814;BME280;15375;48.540;9.268;2022-07-29T13:50:01;97234.03;;;22.46;91.95
4814;BME280;15375;48.540;9.268;2022-07-29T13:52:28;97215.06;;;21.02;100.00
4814;BME280;15375;48.540;9.268;2022-07-29T13:54:53;97227.06;;;21.14;100.00
4814;BME280;15375;48.540;9.268;2022-07-29T13:57:18;97217.53;;;21.21;100.00
4814;BME280;15375;48.540;9.268;2022-07-29T13:59:44;97241.72;;;21.46;100.00
4814;BME280;15375;48.540;9.268;2022-07-29T14:02:13;97225.25;;;21.37;100.00
4814;BME280;15375;48.540;9.268;2022-07-29T14:04:38;97217.97;;;21.45;100.00
4814;BME280;15375;48.540;9.268;2022-07-29T14:07:04;97237.00;;;21.89;100.00
4814;BME280;15375;48.540;9.268;2022-07-29T14:09:31;97229.81;;;22.08;100.00
4814;BME280;15375;48.540;9.268;2022-07-29T14:11:56;97206.47;;;21.89;100.00